Terminal Aerodrome Forecast
Issued by NWS

Home | Current Version | Previous Version | Text Only | Print | Product List | Glossary On
Versions: 1 2 3 4 5 6 7 8 9 10 11 12 13 14 15 16 17 18 19 20 21 22 23 24 25 26
000
FTUS41 KOKX 251342 AAA
TAFSWF
TAF AMD
KSWF 251342Z 2514/2618 07010KT 5SM BR VCSH OVC020
     FM251500 07010G17KT 4SM -RA BR OVC015
     FM251700 07013G21KT 3SM RA BR OVC012
     FM260000 07012KT 1SM RA BR OVC005
     FM260400 05010KT 1SM -RA BR OVC004
     FM261600 03007KT 2SM BR VCSH BKN005 OVC012
      AMD NOT SKED=

USA.gov is the U.S. government's official web portal to all federal, state and local government web resources and services.